sensor_id;sensor_type;location;lat;lon;timestamp;pressure;altitude;pressure_sealevel;temperature;humidity
54389;BME280;40975;50.390;8.640;2023-03-04T00:00:43;99837.75;;;-2.39;100.00
54389;BME280;40975;50.390;8.640;2023-03-04T00:03:10;99840.84;;;-2.26;100.00
54389;BME280;40975;50.390;8.640;2023-03-04T00:05:36;99838.19;;;-2.24;100.00
54389;BME280;40975;50.390;8.640;2023-03-04T00:08:02;99835.97;;;-2.37;100.00
54389;BME280;40975;50.390;8.640;2023-03-04T00:10:27;99835.53;;;-2.51;100.00
54389;BME280;40975;50.390;8.640;2023-03-04T00:12:52;99841.56;;;-2.51;100.00
54389;BME280;40975;50.390;8.640;2023-03-04T00:15:18;99842.47;;;-2.52;100.00
54389;BME280;40975;50.390;8.640;2023-03-04T00:17:43;99845.81;;;-2.46;100.00
54389;BME280;40975;50.390;8.640;2023-03-04T00:20:11;99844.09;;;-2.47;100.00
54389;BME280;40975;50.390;8.640;2023-03-04T00:22:36;99836.44;;;-2.52;100.00
54389;BME280;40975;50.390;8.640;2023-03-04T00:25:02;99838.13;;;-2.51;100.00
54389;BME280;40975;50.390;8.640;2023-03-04T00:27:28;99840.63;;;-2.48;100.00
54389;BME280;40975;50.390;8.640;2023-03-04T00:29:54;99847.22;;;-2.36;100.00
54389;BME280;40975;50.390;8.640;2023-03-04T00:32:19;99839.06;;;-2.25;100.00
54389;BME280;40975;50.390;8.640;2023-03-04T00:34:44;99840.41;;;-2.12;100.00
54389;BME280;40975;50.390;8.640;2023-03-04T00:37:10;99846.06;;;-1.99;100.00
54389;BME280;40975;50.390;8.640;2023-03-04T00:39:35;99833.44;;;-1.84;100.00
54389;BME280;40975;50.390;8.640;2023-03-04T00:42:00;99840.34;;;-1.83;100.00
54389;BME280;40975;50.390;8.640;2023-03-04T00:44:26;99839.28;;;-1.76;100.00
54389;BME280;40975;50.390;8.640;2023-03-04T00:46:51;99841.81;;;-1.75;100.00
54389;BME280;40975;50.390;8.640;2023-03-04T00:49:16;99835.78;;;-1.75;100.00
54389;BME280;40975;50.390;8.640;2023-03-04T00:51:42;99839.16;;;-1.73;100.00
54389;BME280;40975;50.390;8.640;2023-03-04T00:54:07;99839.94;;;-1.71;100.00
54389;BME280;40975;50.390;8.640;2023-03-04T00:56:32;99831.34;;;-1.73;100.00
54389;BME280;40975;50.390;8.640;2023-03-04T00:58:58;99832.69;;;-1.88;100.00
54389;BME280;40975;50.390;8.640;2023-03-04T01:01:23;99833.44;;;-1.84;100.00
54389;BME280;40975;50.390;8.640;2023-03-04T01:03:50;99825.50;;;-1.80;100.00
54389;BME280;40975;50.390;8.640;2023-03-04T01:06:15;99817.97;;;-1.62;100.00
54389;BME280;40975;50.390;8.640;2023-03-04T01:08:41;99811.75;;;-1.58;100.00
54389;BME280;40975;50.390;8.640;2023-03-04T01:11:06;99825.81;;;-1.37;100.00
54389;BME280;40975;50.390;8.640;2023-03-04T01:13:31;99811.75;;;-1.33;100.00
54389;BME280;40975;50.390;8.640;2023-03-04T01:15:57;99814.34;;;-1.33;100.00
54389;BME280;40975;50.390;8.640;2023-03-04T01:18:23;99813.25;;;-1.26;100.00
54389;BME280;40975;50.390;8.640;2023-03-04T01:20:48;99808.56;;;-1.16;100.00
54389;BME280;40975;50.390;8.640;2023-03-04T01:23:14;99810.09;;;-1.10;100.00
54389;BME280;40975;50.390;8.640;2023-03-04T01:25:40;99813.25;;;-1.02;100.00
54389;BME280;40975;50.390;8.640;2023-03-04T01:28:05;99809.41;;;-0.91;100.00
54389;BME280;40975;50.390;8.640;2023-03-04T01:30:31;99802.03;;;-0.80;100.00
54389;BME280;40975;50.390;8.640;2023-03-04T01:32:56;99798.25;;;-0.71;100.00
54389;BME280;40975;50.390;8.640;2023-03-04T01:35:22;99800.44;;;-0.60;100.00
54389;BME280;40975;50.390;8.640;2023-03-04T01:37:47;99792.31;;;-0.53;100.00
54389;BME280;40975;50.390;8.640;2023-03-04T01:40:13;99787.75;;;-0.48;100.00
54389;BME280;40975;50.390;8.640;2023-03-04T01:42:38;99793.59;;;-0.41;100.00
54389;BME280;40975;50.390;8.640;2023-03-04T01:45:05;99793.47;;;-0.38;100.00
54389;BME280;40975;50.390;8.640;2023-03-04T01:47:33;99783.84;;;-0.36;100.00
54389;BME280;40975;50.390;8.640;2023-03-04T01:50:00;99774.31;;;-0.37;100.00
54389;BME280;40975;50.390;8.640;2023-03-04T01:52:27;99780.16;;;-0.30;100.00
54389;BME280;40975;50.390;8.640;2023-03-04T01:54:53;99770.44;;;-0.26;100.00
54389;BME280;40975;50.390;8.640;2023-03-04T01:57:24;99776.28;;;-0.21;100.00
54389;BME280;40975;50.390;8.640;2023-03-04T02:02:56;99767.19;;;-0.11;100.00
54389;BME280;40975;50.390;8.640;2023-03-04T02:05:22;99758.97;;;-0.02;100.00
54389;BME280;40975;50.390;8.640;2023-03-04T02:07:50;99760.56;;;0.03;100.00
54389;BME280;40975;50.390;8.640;2023-03-04T02:10:16;99760.56;;;0.03;100.00
54389;BME280;40975;50.390;8.640;2023-03-04T02:12:41;99752.53;;;0.07;100.00
54389;BME280;40975;50.390;8.640;2023-03-04T02:15:07;99757.59;;;0.10;100.00
54389;BME280;40975;50.390;8.640;2023-03-04T02:17:33;99749.97;;;0.06;100.00
54389;BME280;40975;50.390;8.640;2023-03-04T02:23:06;99755.84;;;0.11;100.00
54389;BME280;40975;50.390;8.640;2023-03-04T02:25:47;99739.34;;;0.10;100.00
54389;BME280;40975;50.390;8.640;2023-03-04T02:28:14;99747.75;;;0.17;100.00
54389;BME280;40975;50.390;8.640;2023-03-04T02:30:41;99743.53;;;0.14;100.00
54389;BME280;40975;50.390;8.640;2023-03-04T02:33:13;99738.03;;;0.21;100.00
54389;BME280;40975;50.390;8.640;2023-03-04T02:35:40;99750.06;;;0.25;100.00
54389;BME280;40975;50.390;8.640;2023-03-04T02:38:05;99737.31;;;0.17;100.00
54389;BME280;40975;50.390;8.640;2023-03-04T02:40:32;99730.16;;;0.22;100.00
54389;BME280;40975;50.390;8.640;2023-03-04T02:42:59;99736.59;;;0.13;100.00
54389;BME280;40975;50.390;8.640;2023-03-04T02:45:43;99741.44;;;0.23;100.00
54389;BME280;40975;50.390;8.640;2023-03-04T02:48:09;99732.16;;;0.15;100.00
54389;BME280;40975;50.390;8.640;2023-03-04T02:50:41;99731.13;;;0.20;100.00
54389;BME280;40975;50.390;8.640;2023-03-04T02:53:08;99728.56;;;0.18;100.00
54389;BME280;40975;50.390;8.640;2023-03-04T02:55:34;99727.75;;;0.18;100.00
54389;BME280;40975;50.390;8.640;2023-03-04T02:57:59;99728.25;;;0.26;100.00
54389;BME280;40975;50.390;8.640;2023-03-04T03:00:26;99729.94;;;0.27;100.00
54389;BME280;40975;50.390;8.640;2023-03-04T03:02:52;99727.06;;;0.33;100.00
54389;BME280;40975;50.390;8.640;2023-03-04T03:05:18;99726.88;;;0.38;100.00
54389;BME280;40975;50.390;8.640;2023-03-04T03:07:44;99727.78;;;0.37;100.00
54389;BME280;40975;50.390;8.640;2023-03-04T03:10:10;99731.25;;;0.37;100.00
54389;BME280;40975;50.390;8.640;2023-03-04T03:12:35;99731.97;;;0.41;100.00
54389;BME280;40975;50.390;8.640;2023-03-04T03:15:00;99731.88;;;0.42;100.00
54389;BME280;40975;50.390;8.640;2023-03-04T03:17:26;99731.75;;;0.45;100.00
54389;BME280;40975;50.390;8.640;2023-03-04T03:19:51;99719.69;;;0.43;100.00
54389;BME280;40975;50.390;8.640;2023-03-04T03:22:16;99729.56;;;0.55;100.00
54389;BME280;40975;50.390;8.640;2023-03-04T03:24:42;99726.06;;;0.56;100.00
54389;BME280;40975;50.390;8.640;2023-03-04T03:27:07;99726.22;;;0.53;100.00
54389;BME280;40975;50.390;8.640;2023-03-04T03:29:33;99714.09;;;0.51;100.00
54389;BME280;40975;50.390;8.640;2023-03-04T03:31:58;99724.31;;;0.57;100.00
54389;BME280;40975;50.390;8.640;2023-03-04T03:34:24;99718.09;;;0.59;100.00
54389;BME280;40975;50.390;8.640;2023-03-04T03:36:49;99726.72;;;0.61;100.00
54389;BME280;40975;50.390;8.640;2023-03-04T03:39:14;99725.00;;;0.60;100.00
54389;BME280;40975;50.390;8.640;2023-03-04T03:41:40;99720.41;;;0.66;100.00
54389;BME280;40975;50.390;8.640;2023-03-04T03:44:06;99722.13;;;0.67;100.00
54389;BME280;40975;50.390;8.640;2023-03-04T03:46:31;99712.72;;;0.63;100.00
54389;BME280;40975;50.390;8.640;2023-03-04T03:48:56;99721.53;;;0.60;100.00
54389;BME280;40975;50.390;8.640;2023-03-04T03:51:22;99716.25;;;0.61;100.00
54389;BME280;40975;50.390;8.640;2023-03-04T03:53:47;99717.03;;;0.64;100.00
54389;BME280;40975;50.390;8.640;2023-03-04T03:56:12;99719.66;;;0.64;100.00
54389;BME280;40975;50.390;8.640;2023-03-04T03:58:38;99714.34;;;0.65;100.00
54389;BME280;40975;50.390;8.640;2023-03-04T04:01:03;99713.44;;;0.66;100.00
54389;BME280;40975;50.390;8.640;2023-03-04T04:03:29;99715.84;;;0.71;100.00
54389;BME280;40975;50.390;8.640;2023-03-04T04:05:54;99713.22;;;0.71;100.00
54389;BME280;40975;50.390;8.640;2023-03-04T04:08:20;99714.94;;;0.72;100.00
54389;BME280;40975;50.390;8.640;2023-03-04T04:10:45;99695.06;;;0.68;100.00
54389;BME280;40975;50.390;8.640;2023-03-04T04:13:10;99713.09;;;0.74;100.00
54389;BME280;40975;50.390;8.640;2023-03-04T04:15:36;99712.16;;;0.75;100.00
54389;BME280;40975;50.390;8.640;2023-03-04T04:18:03;99711.44;;;0.71;100.00
54389;BME280;40975;50.390;8.640;2023-03-04T04:20:29;99710.75;;;0.68;100.00
54389;BME280;40975;50.390;8.640;2023-03-04T04:22:54;99705.31;;;0.72;100.00
54389;BME280;40975;50.390;8.640;2023-03-04T04:25:19;99704.13;;;0.80;100.00
54389;BME280;40975;50.390;8.640;2023-03-04T04:27:45;99704.69;;;0.86;100.00
54389;BME280;40975;50.390;8.640;2023-03-04T04:30:10;99703.97;;;0.83;100.00
54389;BME280;40975;50.390;8.640;2023-03-04T04:32:36;99692.69;;;0.82;100.00
54389;BME280;40975;50.390;8.640;2023-03-04T04:35:01;99700.09;;;0.91;100.00
54389;BME280;40975;50.390;8.640;2023-03-04T04:37:26;99690.56;;;0.90;100.00
54389;BME280;40975;50.390;8.640;2023-03-04T04:39:52;99689.91;;;0.85;100.00
54389;BME280;40975;50.390;8.640;2023-03-04T04:42:19;99690.00;;;0.84;100.00
54389;BME280;40975;50.390;8.640;2023-03-04T04:44:44;99690.84;;;0.84;100.00
54389;BME280;40975;50.390;8.640;2023-03-04T04:47:10;99685.63;;;0.84;100.00
54389;BME280;40975;50.390;8.640;2023-03-04T04:49:35;99694.22;;;0.86;100.00
54389;BME280;40975;50.390;8.640;2023-03-04T04:52:01;99690.00;;;0.84;100.00
54389;BME280;40975;50.390;8.640;2023-03-04T04:54:26;99694.19;;;0.88;100.00
54389;BME280;40975;50.390;8.640;2023-03-04T04:56:51;99697.63;;;0.88;100.00
54389;BME280;40975;50.390;8.640;2023-03-04T04:59:17;99690.91;;;0.83;100.00
54389;BME280;40975;50.390;8.640;2023-03-04T05:01:42;99691.13;;;0.97;100.00
54389;BME280;40975;50.390;8.640;2023-03-04T05:04:07;99698.09;;;0.97;100.00
54389;BME280;40975;50.390;8.640;2023-03-04T05:06:32;99689.56;;;0.93;100.00
54389;BME280;40975;50.390;8.640;2023-03-04T05:08:58;99697.28;;;0.96;100.00
54389;BME280;40975;50.390;8.640;2023-03-04T05:11:23;99690.47;;;0.92;100.00
54389;BME280;40975;50.390;8.640;2023-03-04T05:13:49;99696.06;;;1.03;100.00
54389;BME280;40975;50.390;8.640;2023-03-04T05:16:15;99693.66;;;0.99;100.00
54389;BME280;40975;50.390;8.640;2023-03-04T05:18:41;99695.66;;;0.93;100.00
54389;BME280;40975;50.390;8.640;2023-03-04T05:21:07;99696.72;;;0.89;100.00
54389;BME280;40975;50.390;8.640;2023-03-04T05:23:35;99692.84;;;0.98;100.00
54389;BME280;40975;50.390;8.640;2023-03-04T05:26:01;99697.34;;;0.95;100.00
54389;BME280;40975;50.390;8.640;2023-03-04T05:28:27;99689.34;;;0.98;100.00
54389;BME280;40975;50.390;8.640;2023-03-04T05:30:53;99698.09;;;0.97;100.00
54389;BME280;40975;50.390;8.640;2023-03-04T05:33:18;99687.88;;;0.92;100.00
54389;BME280;40975;50.390;8.640;2023-03-04T05:35:45;99703.41;;;0.95;100.00
54389;BME280;40975;50.390;8.640;2023-03-04T05:38:14;99683.63;;;0.89;100.00
54389;BME280;40975;50.390;8.640;2023-03-04T05:40:40;99702.38;;;0.99;100.00
54389;BME280;40975;50.390;8.640;2023-03-04T05:43:05;99680.13;;;0.90;100.00
54389;BME280;40975;50.390;8.640;2023-03-04T05:45:31;99700.50;;;1.01;100.00
54389;BME280;40975;50.390;8.640;2023-03-04T05:47:56;99696.84;;;1.05;100.00
54389;BME280;40975;50.390;8.640;2023-03-04T05:50:22;99697.75;;;1.04;100.00
54389;BME280;40975;50.390;8.640;2023-03-04T05:52:48;99696.75;;;1.07;100.00
54389;BME280;40975;50.390;8.640;2023-03-04T05:55:14;99696.75;;;1.07;100.00
54389;BME280;40975;50.390;8.640;2023-03-04T05:57:39;99697.31;;;1.14;100.00
54389;BME280;40975;50.390;8.640;2023-03-04T06:00:05;99707.09;;;1.10;100.00
54389;BME280;40975;50.390;8.640;2023-03-04T06:02:38;99698.31;;;1.11;100.00
54389;BME280;40975;50.390;8.640;2023-03-04T06:05:05;99704.34;;;1.13;100.00
54389;BME280;40975;50.390;8.640;2023-03-04T06:07:30;99687.53;;;1.00;100.00
54389;BME280;40975;50.390;8.640;2023-03-04T06:09:56;99712.31;;;1.10;100.00
54389;BME280;40975;50.390;8.640;2023-03-04T06:12:21;99718.38;;;1.11;100.00
54389;BME280;40975;50.390;8.640;2023-03-04T06:14:46;99713.09;;;1.12;100.00
54389;BME280;40975;50.390;8.640;2023-03-04T06:17:12;99721.84;;;1.11;100.00
54389;BME280;40975;50.390;8.640;2023-03-04T06:19:37;99725.88;;;1.18;100.00
54389;BME280;40975;50.390;8.640;2023-03-04T06:22:04;99723.59;;;1.11;100.00
54389;BME280;40975;50.390;8.640;2023-03-04T06:24:29;99733.59;;;1.21;100.00
54389;BME280;40975;50.390;8.640;2023-03-04T06:26:54;99728.28;;;1.23;100.00
54389;BME280;40975;50.390;8.640;2023-03-04T06:29:20;99731.59;;;1.27;100.00
54389;BME280;40975;50.390;8.640;2023-03-04T06:31:45;99730.53;;;1.31;100.00
54389;BME280;40975;50.390;8.640;2023-03-04T06:34:10;99740.41;;;1.43;100.00
54389;BME280;40975;50.390;8.640;2023-03-04T06:36:36;99723.47;;;1.33;100.00
54389;BME280;40975;50.390;8.640;2023-03-04T06:39:05;99721.59;;;1.35;100.00
54389;BME280;40975;50.390;8.640;2023-03-04T06:41:31;99729.44;;;1.35;100.00
54389;BME280;40975;50.390;8.640;2023-03-04T06:43:56;99736.94;;;1.43;100.00
54389;BME280;40975;50.390;8.640;2023-03-04T06:46:22;99744.72;;;1.44;100.00
54389;BME280;40975;50.390;8.640;2023-03-04T06:48:47;99738.41;;;1.48;100.00
54389;BME280;40975;50.390;8.640;2023-03-04T06:51:13;99740.03;;;1.51;100.00
54389;BME280;40975;50.390;8.640;2023-03-04T06:53:40;99740.19;;;1.48;100.00
54389;BME280;40975;50.390;8.640;2023-03-04T06:56:07;99744.28;;;1.53;100.00
54389;BME280;40975;50.390;8.640;2023-03-04T06:58:32;99737.34;;;1.52;100.00
54389;BME280;40975;50.390;8.640;2023-03-04T07:01:41;99744.06;;;1.58;100.00
54389;BME280;40975;50.390;8.640;2023-03-04T07:04:01;99754.00;;;1.69;100.00
54389;BME280;40975;50.390;8.640;2023-03-04T07:06:27;99751.16;;;1.74;100.00
54389;BME280;40975;50.390;8.640;2023-03-04T07:08:53;99744.22;;;1.73;100.00
54389;BME280;40975;50.390;8.640;2023-03-04T07:11:19;99751.63;;;1.82;100.00
54389;BME280;40975;50.390;8.640;2023-03-04T07:13:45;99753.28;;;1.84;100.00
54389;BME280;40975;50.390;8.640;2023-03-04T07:16:13;99754.88;;;1.87;100.00
54389;BME280;40975;50.390;8.640;2023-03-04T07:18:39;99762.34;;;1.95;100.00
54389;BME280;40975;50.390;8.640;2023-03-04T07:21:06;99770.97;;;1.97;100.00
54389;BME280;40975;50.390;8.640;2023-03-04T07:23:31;99756.34;;;1.93;100.00
54389;BME280;40975;50.390;8.640;2023-03-04T07:25:57;99767.44;;;1.98;100.00
54389;BME280;40975;50.390;8.640;2023-03-04T07:28:23;99769.13;;;1.99;100.00
54389;BME280;40975;50.390;8.640;2023-03-04T07:30:49;99761.81;;;2.06;100.00
54389;BME280;40975;50.390;8.640;2023-03-04T07:33:14;99774.28;;;2.00;100.00
54389;BME280;40975;50.390;8.640;2023-03-04T07:35:40;99770.38;;;2.09;100.00
54389;BME280;40975;50.390;8.640;2023-03-04T07:38:05;99776.66;;;2.05;100.00
54389;BME280;40975;50.390;8.640;2023-03-04T07:40:31;99755.03;;;2.01;100.00
54389;BME280;40975;50.390;8.640;2023-03-04T07:42:56;99772.63;;;2.17;100.00
54389;BME280;40975;50.390;8.640;2023-03-04T07:45:23;99781.94;;;2.23;100.00
54389;BME280;40975;50.390;8.640;2023-03-04T07:47:48;99777.28;;;2.28;100.00
54389;BME280;40975;50.390;8.640;2023-03-04T07:50:14;99760.97;;;2.23;100.00
54389;BME280;40975;50.390;8.640;2023-03-04T07:52:41;99782.31;;;2.32;100.00
54389;BME280;40975;50.390;8.640;2023-03-04T07:55:08;99773.81;;;2.45;100.00
54389;BME280;40975;50.390;8.640;2023-03-04T07:57:34;99776.00;;;2.37;100.00
54389;BME280;40975;50.390;8.640;2023-03-04T07:59:59;99769.75;;;2.39;100.00
54389;BME280;40975;50.390;8.640;2023-03-04T08:02:25;99777.44;;;2.42;100.00
54389;BME280;40975;50.390;8.640;2023-03-04T08:04:50;99768.59;;;2.45;100.00
54389;BME280;40975;50.390;8.640;2023-03-04T08:07:16;99764.88;;;2.49;100.00
54389;BME280;40975;50.390;8.640;2023-03-04T08:09:41;99774.28;;;2.53;100.00
54389;BME280;40975;50.390;8.640;2023-03-04T08:12:07;99774.66;;;2.63;100.00
54389;BME280;40975;50.390;8.640;2023-03-04T08:14:32;99767.28;;;2.70;100.00
54389;BME280;40975;50.390;8.640;2023-03-04T08:16:58;99768.00;;;2.73;100.00
54389;BME280;40975;50.390;8.640;2023-03-04T08:19:23;99764.66;;;2.70;100.00
54389;BME280;40975;50.390;8.640;2023-03-04T08:21:48;99768.44;;;2.82;100.00
54389;BME280;40975;50.390;8.640;2023-03-04T08:24:14;99778.25;;;2.78;100.00
54389;BME280;40975;50.390;8.640;2023-03-04T08:26:46;99750.06;;;2.66;100.00
54389;BME280;40975;50.390;8.640;2023-03-04T08:29:15;99774.28;;;2.87;100.00
54389;BME280;40975;50.390;8.640;2023-03-04T08:31:41;99772.53;;;3.03;100.00
54389;BME280;40975;50.390;8.640;2023-03-04T08:34:08;99765.25;;;2.92;100.00
54389;BME280;40975;50.390;8.640;2023-03-04T08:36:35;99776.53;;;3.10;100.00
54389;BME280;40975;50.390;8.640;2023-03-04T08:39:01;99776.88;;;3.04;100.00
54389;BME280;40975;50.390;8.640;2023-03-04T08:41:27;99779.94;;;2.95;99.35
54389;BME280;40975;50.390;8.640;2023-03-04T08:43:53;99775.06;;;3.05;100.00
54389;BME280;40975;50.390;8.640;2023-03-04T08:46:18;99777.97;;;3.16;100.00
54389;BME280;40975;50.390;8.640;2023-03-04T08:48:44;99779.72;;;3.16;99.98
54389;BME280;40975;50.390;8.640;2023-03-04T08:51:11;99786.94;;;3.28;100.00
54389;BME280;40975;50.390;8.640;2023-03-04T08:53:37;99773.97;;;3.25;100.00
54389;BME280;40975;50.390;8.640;2023-03-04T08:56:04;99779.69;;;3.33;98.79
54389;BME280;40975;50.390;8.640;2023-03-04T08:58:29;99787.31;;;3.38;98.39
54389;BME280;40975;50.390;8.640;2023-03-04T09:00:54;99778.06;;;3.47;97.74
54389;BME280;40975;50.390;8.640;2023-03-04T09:03:20;99775.00;;;3.54;96.85
54389;BME280;40975;50.390;8.640;2023-03-04T09:05:46;99780.94;;;3.58;97.94
54389;BME280;40975;50.390;8.640;2023-03-04T09:08:12;99767.91;;;3.56;98.82
54389;BME280;40975;50.390;8.640;2023-03-04T09:10:38;99777.03;;;3.65;98.67
54389;BME280;40975;50.390;8.640;2023-03-04T09:13:03;99783.38;;;3.77;99.13
54389;BME280;40975;50.390;8.640;2023-03-04T09:15:30;99778.56;;;3.69;98.46
54389;BME280;40975;50.390;8.640;2023-03-04T09:17:56;99782.00;;;3.70;96.19
54389;BME280;40975;50.390;8.640;2023-03-04T09:20:21;99777.94;;;3.80;96.92
54389;BME280;40975;50.390;8.640;2023-03-04T09:22:47;99770.91;;;3.97;97.68
54389;BME280;40975;50.390;8.640;2023-03-04T09:25:13;99761.97;;;3.99;96.53
54389;BME280;40975;50.390;8.640;2023-03-04T09:27:39;99776.81;;;4.00;95.03
54389;BME280;40975;50.390;8.640;2023-03-04T09:30:06;99772.22;;;4.04;95.26
54389;BME280;40975;50.390;8.640;2023-03-04T09:32:32;99770.75;;;4.14;95.48
54389;BME280;40975;50.390;8.640;2023-03-04T09:34:57;99773.78;;;4.23;94.38
54389;BME280;40975;50.390;8.640;2023-03-04T09:37:22;99776.72;;;4.32;93.97
54389;BME280;40975;50.390;8.640;2023-03-04T09:39:48;99771.75;;;4.42;94.40
54389;BME280;40975;50.390;8.640;2023-03-04T09:42:24;99772.88;;;4.38;93.09
54389;BME280;40975;50.390;8.640;2023-03-04T09:44:50;99773.72;;;4.39;93.32
54389;BME280;40975;50.390;8.640;2023-03-04T09:47:18;99776.72;;;4.47;94.89
54389;BME280;40975;50.390;8.640;2023-03-04T09:49:59;99766.53;;;4.57;93.93
54389;BME280;40975;50.390;8.640;2023-03-04T09:55:34;99777.59;;;4.47;93.54
54389;BME280;40975;50.390;8.640;2023-03-04T09:58:23;99774.38;;;4.42;94.76
54389;BME280;40975;50.390;8.640;2023-03-04T10:00:57;99766.97;;;4.49;93.67
54389;BME280;40975;50.390;8.640;2023-03-04T10:03:42;99772.13;;;4.50;94.12
54389;BME280;40975;50.390;8.640;2023-03-04T10:06:12;99768.94;;;4.45;93.99
54389;BME280;40975;50.390;8.640;2023-03-04T10:16:55;99759.50;;;4.72;92.84
54389;BME280;40975;50.390;8.640;2023-03-04T10:19:35;99758.09;;;4.66;91.77
54389;BME280;40975;50.390;8.640;2023-03-04T10:22:26;99758.16;;;4.64;94.46
54389;BME280;40975;50.390;8.640;2023-03-04T10:24:55;99753.72;;;4.50;92.91
54389;BME280;40975;50.390;8.640;2023-03-04T10:27:21;99748.03;;;4.44;93.70
54389;BME280;40975;50.390;8.640;2023-03-04T10:29:49;99749.69;;;4.45;93.88
54389;BME280;40975;50.390;8.640;2023-03-04T10:32:19;99754.50;;;4.53;93.80
54389;BME280;40975;50.390;8.640;2023-03-04T10:34:45;99740.03;;;4.60;92.47
54389;BME280;40975;50.390;8.640;2023-03-04T10:37:10;99747.25;;;4.85;93.80
54389;BME280;40975;50.390;8.640;2023-03-04T10:39:44;99738.72;;;4.81;92.16
54389;BME280;40975;50.390;8.640;2023-03-04T10:47:16;99744.25;;;5.06;89.18
54389;BME280;40975;50.390;8.640;2023-03-04T10:49:52;99737.47;;;5.16;89.91
54389;BME280;40975;50.390;8.640;2023-03-04T10:52:26;99723.72;;;5.25;90.20
54389;BME280;40975;50.390;8.640;2023-03-04T10:54:54;99733.03;;;5.58;89.14
54389;BME280;40975;50.390;8.640;2023-03-04T10:57:27;99722.84;;;5.67;88.02
54389;BME280;40975;50.390;8.640;2023-03-04T10:59:58;99726.66;;;5.75;86.83
54389;BME280;40975;50.390;8.640;2023-03-04T11:02:34;99717.28;;;6.12;85.83
54389;BME280;40975;50.390;8.640;2023-03-04T11:07:49;99714.66;;;6.12;85.99
54389;BME280;40975;50.390;8.640;2023-03-04T11:10:24;99715.16;;;6.04;85.21
54389;BME280;40975;50.390;8.640;2023-03-04T11:13:01;99706.69;;;5.99;84.20
54389;BME280;40975;50.390;8.640;2023-03-04T11:15:28;99711.88;;;6.00;85.64
54389;BME280;40975;50.390;8.640;2023-03-04T11:18:03;99709.53;;;5.96;82.73
54389;BME280;40975;50.390;8.640;2023-03-04T11:20:32;99708.31;;;6.14;82.57
54389;BME280;40975;50.390;8.640;2023-03-04T11:23:03;99705.16;;;6.22;84.73
54389;BME280;40975;50.390;8.640;2023-03-04T11:25:33;99707.19;;;6.18;84.99
54389;BME280;40975;50.390;8.640;2023-03-04T11:28:05;99709.19;;;6.15;83.84
54389;BME280;40975;50.390;8.640;2023-03-04T11:31:18;99699.66;;;5.99;82.80
54389;BME280;40975;50.390;8.640;2023-03-04T11:37:02;99702.13;;;6.41;82.73
54389;BME280;40975;50.390;8.640;2023-03-04T11:42:16;99702.81;;;7.19;80.42
54389;BME280;40975;50.390;8.640;2023-03-04T11:44:44;99692.75;;;7.37;79.78
54389;BME280;40975;50.390;8.640;2023-03-04T11:47:16;99685.44;;;7.41;76.39
54389;BME280;40975;50.390;8.640;2023-03-04T11:52:37;99679.03;;;7.56;75.00
54389;BME280;40975;50.390;8.640;2023-03-04T11:55:12;99680.06;;;7.42;75.44
54389;BME280;40975;50.390;8.640;2023-03-04T12:05:45;99655.91;;;8.07;75.76
54389;BME280;40975;50.390;8.640;2023-03-04T12:08:34;99651.31;;;8.20;75.82
54389;BME280;40975;50.390;8.640;2023-03-04T12:11:02;99647.28;;;8.28;73.53
54389;BME280;40975;50.390;8.640;2023-03-04T12:13:51;99652.19;;;8.32;74.42
54389;BME280;40975;50.390;8.640;2023-03-04T12:22:02;99643.78;;;8.38;72.31
54389;BME280;40975;50.390;8.640;2023-03-04T12:24:47;99644.25;;;8.21;72.37
54389;BME280;40975;50.390;8.640;2023-03-04T12:27:48;99635.72;;;8.17;71.66
54389;BME280;40975;50.390;8.640;2023-03-04T12:36:17;99630.16;;;7.98;75.42
54389;BME280;40975;50.390;8.640;2023-03-04T12:38:58;99619.47;;;7.99;74.85
54389;BME280;40975;50.390;8.640;2023-03-04T12:41:41;99617.41;;;8.03;74.82
54389;BME280;40975;50.390;8.640;2023-03-04T12:44:14;99620.31;;;7.88;72.78
54389;BME280;40975;50.390;8.640;2023-03-04T12:49:43;99607.56;;;7.93;73.61
54389;BME280;40975;50.390;8.640;2023-03-04T12:54:46;99599.53;;;8.40;73.38
54389;BME280;40975;50.390;8.640;2023-03-04T12:57:18;99594.00;;;8.44;71.63
54389;BME280;40975;50.390;8.640;2023-03-04T13:00:16;99594.84;;;8.44;72.98
54389;BME280;40975;50.390;8.640;2023-03-04T13:05:41;99588.97;;;8.29;71.87
54389;BME280;40975;50.390;8.640;2023-03-04T13:08:32;99586.56;;;8.37;74.40
54389;BME280;40975;50.390;8.640;2023-03-04T13:14:21;99586.06;;;7.98;72.07
54389;BME280;40975;50.390;8.640;2023-03-04T13:16:49;99580.06;;;8.30;72.60
54389;BME280;40975;50.390;8.640;2023-03-04T13:19:41;99583.44;;;8.09;75.25
54389;BME280;40975;50.390;8.640;2023-03-04T13:24:51;99576.69;;;7.83;74.35
54389;BME280;40975;50.390;8.640;2023-03-04T13:51:34;99551.34;;;6.97;80.61
54389;BME280;40975;50.390;8.640;2023-03-04T13:56:48;99553.84;;;6.99;81.07
54389;BME280;40975;50.390;8.640;2023-03-04T13:59:29;99557.38;;;6.87;81.44
54389;BME280;40975;50.390;8.640;2023-03-04T14:02:12;99549.03;;;6.93;82.61
54389;BME280;40975;50.390;8.640;2023-03-04T14:04:45;99558.56;;;6.82;81.67
54389;BME280;40975;50.390;8.640;2023-03-04T14:07:24;99548.13;;;6.81;82.20
54389;BME280;40975;50.390;8.640;2023-03-04T14:09:55;99558.84;;;6.91;83.20
54389;BME280;40975;50.390;8.640;2023-03-04T14:12:21;99558.31;;;6.61;83.43
54389;BME280;40975;50.390;8.640;2023-03-04T14:14:55;99544.19;;;6.62;84.33
54389;BME280;40975;50.390;8.640;2023-03-04T14:17:24;99552.81;;;6.64;85.32
54389;BME280;40975;50.390;8.640;2023-03-04T14:19:51;99553.91;;;6.62;85.13
54389;BME280;40975;50.390;8.640;2023-03-04T14:27:24;99544.47;;;6.33;85.81
54389;BME280;40975;50.390;8.640;2023-03-04T14:29:57;99545.09;;;6.37;86.49
54389;BME280;40975;50.390;8.640;2023-03-04T14:32:23;99530.84;;;6.40;86.77
54389;BME280;40975;50.390;8.640;2023-03-04T14:34:49;99540.72;;;6.49;86.28
54389;BME280;40975;50.390;8.640;2023-03-04T14:37:23;99531.03;;;6.49;87.20
54389;BME280;40975;50.390;8.640;2023-03-04T14:39:54;99527.84;;;6.57;87.36
54389;BME280;40975;50.390;8.640;2023-03-04T14:42:22;99531.66;;;6.77;87.03
54389;BME280;40975;50.390;8.640;2023-03-04T14:44:50;99527.63;;;6.60;85.74
54389;BME280;40975;50.390;8.640;2023-03-04T14:49:50;99518.88;;;6.22;86.21